createdAt,value
2018-06-02T04:03:38.949Z,100
2018-06-02T04:03:59.091Z,100
2018-06-02T04:11:06.025Z,100
2018-06-02T04:11:26.263Z,100
2018-06-02T04:11:46.443Z,100
2018-06-02T04:14:11.320Z,100
2018-06-02T04:14:31.541Z,100
2018-06-02T04:17:13.896Z,100
2018-06-02T04:21:01.233Z,100
2018-06-02T04:22:21.818Z,100
2018-06-02T04:23:54.579Z,100
2018-06-02T04:29:45.929Z,100
2018-06-02T04:30:06.049Z,100
2018-06-02T04:31:01.932Z,100
2018-06-02T04:33:53.633Z,100
2018-06-02T04:34:13.773Z,100
2018-06-02T04:36:40.901Z,100
2018-06-02T04:37:01.046Z,100
2018-06-02T04:39:03.337Z,100
2018-06-02T04:39:23.509Z,100
2018-06-02T04:39:43.677Z,100
2018-06-02T04:41:38.177Z,100
2018-06-02T04:41:58.260Z,100
2018-06-02T04:42:18.555Z,100
2018-06-02T04:42:38.731Z,100
2018-06-02T04:42:58.896Z,99.9
2018-06-02T04:44:17.429Z,99.8
2018-06-02T04:44:37.599Z,99.8
2018-06-02T04:44:57.759Z,99.3
2018-06-02T04:45:17.933Z,99.4
2018-06-02T04:46:21.377Z,97
2018-06-02T04:46:41.525Z,97.7
2018-06-02T04:47:35.677Z,97.5
2018-06-02T04:47:55.815Z,97.7
2018-06-02T04:48:15.964Z,97.8
2018-06-02T04:48:36.117Z,97.8
2018-06-02T04:48:56.261Z,96.4
2018-06-02T04:50:04.655Z,97.3
2018-06-02T04:50:24.837Z,97.1
2018-06-02T04:50:44.994Z,96.6
2018-06-02T04:51:05.180Z,96.5
2018-06-02T04:51:25.333Z,96.5
2018-06-02T04:51:45.483Z,97.2
2018-06-02T04:52:05.654Z,97.2
2018-06-02T04:52:25.812Z,97
2018-06-02T04:52:45.956Z,97.2
2018-06-02T04:53:06.101Z,97
2018-06-02T04:53:26.288Z,96.4
2018-06-02T04:53:46.452Z,96.6
2018-06-02T04:54:06.618Z,97
2018-06-02T04:54:26.783Z,97
2018-06-02T04:54:46.968Z,96.6
2018-06-02T04:55:54.473Z,96.6
2018-06-02T04:56:32.999Z,96.1
2018-06-02T04:57:11.708Z,96.2
2018-06-02T04:57:50.428Z,96
2018-06-02T04:58:10.589Z,95.9
2018-06-02T04:58:30.753Z,95.6
2018-06-02T04:58:50.915Z,95.8
2018-06-02T04:59:11.075Z,95.5
2018-06-02T04:59:31.240Z,95.9
2018-06-02T04:59:51.398Z,96.2
2018-06-02T05:00:11.550Z,95.5
2018-06-02T05:00:31.727Z,95.9
2018-06-02T05:00:51.868Z,95.9
2018-06-02T05:01:12.051Z,95.5
2018-06-02T05:01:32.214Z,95.3
2018-06-02T05:01:52.365Z,95.4
2018-06-02T05:02:12.524Z,95.6
2018-06-02T05:02:32.691Z,96.2
2018-06-02T05:02:52.851Z,96.2
2018-06-02T05:03:13.020Z,96
2018-06-02T05:03:33.174Z,96.5
2018-06-02T05:03:53.435Z,95.3
2018-06-02T05:04:13.588Z,95
2018-06-02T05:04:33.725Z,95.2
2018-06-02T05:04:53.889Z,95.5
2018-06-02T05:05:14.057Z,95.8
2018-06-02T05:05:34.208Z,95.6
2018-06-02T05:05:54.361Z,95.7
2018-06-02T05:06:14.523Z,95.7
2018-06-02T05:06:34.680Z,95.6
2018-06-02T05:06:54.831Z,95.5
2018-06-02T05:07:14.966Z,95.8
2018-06-02T05:07:35.117Z,95.8
2018-06-02T05:07:55.264Z,95.9
2018-06-02T05:08:15.454Z,96
2018-06-02T05:08:35.591Z,96
2018-06-02T05:08:55.752Z,95.8
2018-06-02T05:09:15.903Z,95.2
2018-06-02T05:09:36.081Z,95.1
2018-06-02T05:09:56.258Z,95.3
2018-06-02T05:10:16.418Z,95
2018-06-02T05:10:36.591Z,95.3
2018-06-02T05:10:56.756Z,95.5
2018-06-02T05:11:16.919Z,95.2
2018-06-02T05:11:37.058Z,95.2
2018-06-02T05:11:57.207Z,94.5
2018-06-02T05:12:17.384Z,94.5
2018-06-02T05:12:37.614Z,94.1
2018-06-02T05:12:57.787Z,94
2018-06-02T05:13:17.964Z,93.4
2018-06-02T05:13:38.151Z,93.9
2018-06-02T05:13:58.373Z,94.1
2018-06-02T05:14:18.539Z,94
2018-06-02T05:14:38.698Z,93.8
2018-06-02T05:14:58.864Z,94.3
2018-06-02T05:15:19.064Z,94.3
2018-06-02T05:15:39.247Z,94.7
2018-06-02T05:15:59.430Z,94.2
2018-06-02T05:16:19.591Z,94
2018-06-02T05:16:39.751Z,94
2018-06-02T05:16:59.911Z,93.8
2018-06-02T05:17:20.078Z,94.2
2018-06-02T05:17:40.270Z,94
2018-06-02T05:18:00.440Z,93.8
2018-06-02T05:18:20.595Z,93.9
2018-06-02T05:18:40.761Z,94
2018-06-02T05:19:00.977Z,93.9
2018-06-02T05:19:21.126Z,94.1
2018-06-02T05:19:41.288Z,93.9
2018-06-02T05:20:01.431Z,93.3
2018-06-02T05:20:21.633Z,93.3
2018-06-02T05:20:41.806Z,92.7
2018-06-02T05:21:01.972Z,93.3
2018-06-02T05:21:22.126Z,93.3
2018-06-02T05:21:42.311Z,93
2018-06-02T05:22:02.513Z,93.2
2018-06-02T05:22:22.727Z,92.9
2018-06-02T05:22:42.893Z,92.8
2018-06-02T05:23:03.077Z,92.9
2018-06-02T05:23:23.257Z,93.4
2018-06-02T05:23:43.424Z,93
2018-06-02T05:24:03.681Z,93.5
2018-06-02T05:24:23.823Z,93.1
2018-06-02T05:24:43.963Z,93.3
2018-06-02T05:25:04.138Z,93.3
2018-06-02T05:25:24.277Z,92.9
2018-06-02T05:25:44.448Z,92.9
2018-06-02T05:26:04.640Z,92.1
2018-06-02T05:26:24.808Z,92.3
2018-06-02T05:26:44.970Z,92.3
2018-06-02T05:27:05.117Z,92.3
2018-06-02T05:27:25.278Z,92.7
2018-06-02T05:27:45.431Z,92.5
2018-06-02T05:28:05.577Z,91.9
2018-06-02T05:28:25.728Z,91.6
2018-06-02T05:28:45.903Z,92.1
2018-06-02T05:29:06.076Z,91.9
2018-06-02T05:29:26.214Z,91.9
2018-06-02T05:29:46.375Z,92.1
2018-06-02T05:30:06.524Z,92.1
2018-06-02T05:30:27.129Z,91.9
2018-06-02T05:30:49.028Z,92.1
2018-06-02T05:31:09.190Z,91.7
2018-06-02T05:31:29.333Z,91.5
2018-06-02T05:31:49.513Z,92.1
2018-06-02T05:32:09.680Z,92.2
2018-06-02T05:32:29.847Z,91.8
2018-06-02T05:32:50.913Z,90.7
2018-06-02T05:33:11.132Z,91.1
2018-06-02T05:33:31.288Z,90.7
2018-06-02T05:33:51.535Z,90.9
2018-06-02T05:34:11.688Z,91.2
2018-06-02T05:34:31.831Z,90.7
2018-06-02T05:34:51.985Z,90.4
2018-06-02T05:35:12.129Z,90.4
2018-06-02T05:35:32.392Z,90.2
2018-06-02T05:35:52.572Z,90.4
2018-06-02T05:36:12.768Z,90.3
2018-06-02T05:36:32.928Z,90.2
2018-06-02T05:36:53.077Z,90.3
2018-06-02T05:37:13.248Z,90.3
2018-06-02T05:37:33.399Z,90.3
2018-06-02T05:37:53.561Z,90.4
2018-06-02T05:38:13.773Z,90.3
2018-06-02T05:38:33.927Z,90.4
2018-06-02T05:38:54.113Z,90.2
2018-06-02T05:39:14.302Z,89.8
2018-06-02T05:39:34.471Z,90.2
2018-06-02T05:39:54.650Z,90.2
2018-06-02T05:40:14.807Z,90.2
2018-06-02T05:40:35.055Z,90.6
2018-06-02T05:40:55.209Z,89.9
2018-06-02T05:41:15.370Z,90.4
2018-06-02T05:41:35.526Z,90.4
2018-06-02T05:41:55.671Z,90
2018-06-02T05:42:15.822Z,89.9
2018-06-02T05:42:35.971Z,90.3
2018-06-02T05:42:56.139Z,90.2
2018-06-02T05:43:16.315Z,90.3
2018-06-02T05:43:36.473Z,90.2
2018-06-02T05:43:56.644Z,90.2
2018-06-02T05:44:16.805Z,89.7
2018-06-02T05:44:36.950Z,90.1
2018-06-02T05:44:57.112Z,90.2
2018-06-02T05:45:17.228Z,90.1
2018-06-02T05:45:37.403Z,90.4
2018-06-02T05:45:57.595Z,90.3
2018-06-02T05:46:17.731Z,90.4
2018-06-02T05:46:37.898Z,90
2018-06-02T05:46:58.065Z,90.1
2018-06-02T05:47:18.274Z,89.9
2018-06-02T05:47:38.462Z,90.3
2018-06-02T05:47:58.601Z,90.2
2018-06-02T05:48:18.753Z,90.1
2018-06-02T05:48:38.981Z,89.9
2018-06-02T05:48:59.139Z,90.1
2018-06-02T05:49:19.286Z,90.4
2018-06-02T05:49:39.420Z,90.1
2018-06-02T05:49:59.589Z,90.2
2018-06-02T05:50:19.747Z,90.1
2018-06-02T05:50:39.967Z,90.2
2018-06-02T05:51:00.146Z,90.2
2018-06-02T05:51:20.314Z,89.9
2018-06-02T05:51:40.454Z,90
2018-06-02T05:52:00.701Z,90.2
2018-06-02T05:52:20.857Z,89.8
2018-06-02T05:52:41.045Z,90.5
2018-06-02T05:53:01.197Z,90
2018-06-02T05:53:21.343Z,90.3
2018-06-02T05:53:41.514Z,90.1
2018-06-02T05:54:01.674Z,90.3
2018-06-02T05:54:21.852Z,89.4
2018-06-02T05:54:42.091Z,90
2018-06-02T05:55:02.191Z,89.5
2018-06-02T05:55:22.343Z,89.5
2018-06-02T05:55:42.484Z,89.4
2018-06-02T05:56:02.638Z,90.5
2018-06-02T05:56:22.795Z,90.1
2018-06-02T05:56:42.960Z,90.2
2018-06-02T05:57:03.119Z,90.4
2018-06-02T05:57:23.291Z,90.1
2018-06-02T05:57:43.454Z,89.8
2018-06-02T05:58:03.594Z,89.7
2018-06-02T05:58:23.750Z,89.7
2018-06-02T05:58:43.906Z,90.1
2018-06-02T05:59:04.076Z,90.3
2018-06-02T05:59:24.222Z,89.8
2018-06-02T05:59:45.168Z,90
2018-06-02T06:00:05.576Z,90.3
2018-06-02T06:00:25.738Z,90.4
2018-06-02T06:00:45.913Z,90.2
2018-06-02T06:01:06.076Z,89.9
2018-06-02T06:01:26.231Z,89.8
2018-06-02T06:01:46.390Z,89.4
2018-06-02T06:02:06.548Z,89.1
2018-06-02T06:02:26.687Z,89.4
2018-06-02T06:02:46.899Z,89.3
2018-06-02T06:03:07.029Z,89.5
2018-06-02T06:03:27.175Z,89.5
2018-06-02T06:03:47.363Z,89.4
2018-06-02T06:04:07.532Z,90.1
2018-06-02T06:04:27.697Z,89.7
2018-06-02T06:04:47.859Z,90.1
2018-06-02T06:05:08.018Z,89.1
2018-06-02T06:05:28.178Z,88.4
2018-06-02T06:05:48.337Z,88.5
2018-06-02T06:06:08.490Z,89.2
2018-06-02T06:06:28.679Z,90.2
2018-06-02T06:06:48.864Z,89.9
2018-06-02T06:07:08.995Z,90.3
2018-06-02T06:07:29.141Z,90
2018-06-02T06:07:49.274Z,89.7
2018-06-02T06:08:09.477Z,89.6
2018-06-02T06:08:29.635Z,89.2
2018-06-02T06:08:49.786Z,89.1
2018-06-02T06:09:09.925Z,88.6
2018-06-02T06:09:30.099Z,88.4
2018-06-02T06:09:50.244Z,88
2018-06-02T06:10:10.383Z,88.3
2018-06-02T06:10:30.533Z,88.2
2018-06-02T06:10:50.730Z,88.3
2018-06-02T06:11:10.862Z,88.3
2018-06-02T06:11:30.988Z,88.3
2018-06-02T06:11:51.153Z,88
2018-06-02T06:12:11.312Z,87.9
2018-06-02T06:12:31.495Z,88.2
2018-06-02T06:12:51.653Z,88.6
2018-06-02T06:13:11.844Z,89.1
2018-06-02T06:13:31.995Z,88.5
2018-06-02T06:13:52.134Z,88.6
2018-06-02T06:14:12.281Z,88.6
2018-06-02T06:14:32.519Z,88.6
2018-06-02T06:14:52.700Z,88.8
2018-06-02T06:15:12.873Z,88.6
2018-06-02T06:15:33.054Z,89
2018-06-02T06:15:53.189Z,88.4
2018-06-02T06:16:13.351Z,88.4
2018-06-02T06:16:33.501Z,88.3
2018-06-02T06:16:53.659Z,88.1
2018-06-02T06:17:13.823Z,88.1
2018-06-02T06:17:33.989Z,88.4
2018-06-02T06:17:54.132Z,89.4
2018-06-02T06:18:14.296Z,88.5
2018-06-02T06:18:34.462Z,88.9
2018-06-02T06:18:54.624Z,88.8
2018-06-02T06:19:14.781Z,88.5
2018-06-02T06:19:35.010Z,88.7
2018-06-02T06:19:55.084Z,88.6
2018-06-02T06:20:15.239Z,88.7
2018-06-02T06:20:35.400Z,88.4
2018-06-02T06:20:55.568Z,88.8
2018-06-02T06:21:15.730Z,89.3
2018-06-02T06:21:35.885Z,89.4
2018-06-02T06:21:56.035Z,89.3
2018-06-02T06:22:16.222Z,89.7
2018-06-02T06:22:36.390Z,90.3
2018-06-02T06:22:56.544Z,90.2
2018-06-02T06:23:16.713Z,89.3
2018-06-02T06:23:36.875Z,89.4
2018-06-02T06:23:57.072Z,88.6
2018-06-02T06:24:17.233Z,88.6
2018-06-02T06:24:37.388Z,89.3
2018-06-02T06:24:57.533Z,90
2018-06-02T06:25:17.691Z,89
2018-06-02T06:25:37.893Z,88.8
2018-06-02T06:25:58.049Z,88.6
2018-06-02T06:26:18.208Z,89.5
2018-06-02T06:26:38.383Z,88.7
2018-06-02T06:26:58.569Z,88.2
2018-06-02T06:27:18.735Z,88.1
2018-06-02T06:27:38.888Z,87.8
2018-06-02T06:27:59.093Z,87.6
2018-06-02T06:28:19.257Z,87.6
2018-06-02T06:28:39.432Z,87.6
2018-06-02T06:28:59.578Z,87.8
2018-06-02T06:29:19.746Z,87.5
2018-06-02T06:29:39.905Z,89.5
2018-06-02T06:30:00.090Z,90.1
2018-06-02T06:30:20.257Z,90.2
2018-06-02T06:30:40.427Z,90.1
2018-06-02T06:31:00.610Z,89.9
2018-06-02T06:31:20.781Z,90.5
2018-06-02T06:31:40.958Z,89.8
2018-06-02T06:32:01.121Z,89.7
2018-06-02T06:32:21.281Z,90.7
2018-06-02T06:32:41.438Z,90.3
2018-06-02T06:33:01.631Z,90.3
2018-06-02T06:33:21.779Z,90.2
2018-06-02T06:33:41.942Z,89.7
2018-06-02T06:34:02.106Z,89
2018-06-02T06:34:22.270Z,89
2018-06-02T06:34:42.426Z,88.9
2018-06-02T06:35:02.567Z,89.5
2018-06-02T06:35:22.705Z,89.5
2018-06-02T06:35:42.881Z,89.7
2018-06-02T06:36:03.088Z,90.4
2018-06-02T06:36:23.239Z,89
2018-06-02T06:36:43.381Z,88.2
2018-06-02T06:37:03.559Z,87.8
2018-06-02T06:37:23.789Z,88.2
2018-06-02T06:37:43.981Z,87.5
2018-06-02T06:38:04.133Z,87.2
2018-06-02T06:38:24.301Z,88.9
2018-06-02T06:38:44.463Z,88
2018-06-02T06:39:04.732Z,87.3
2018-06-02T06:39:25.003Z,85.9
2018-06-02T06:39:45.139Z,86.1
2018-06-02T06:40:05.350Z,85.8
2018-06-02T06:40:25.504Z,85.9
2018-06-02T06:40:45.650Z,86.5
2018-06-02T06:41:05.815Z,87.2
2018-06-02T06:41:25.978Z,88.1
2018-06-02T06:41:46.145Z,87.8
2018-06-02T06:42:06.302Z,87.7
2018-06-02T06:42:26.463Z,87.5
2018-06-02T06:42:46.638Z,87.3
2018-06-02T06:43:06.787Z,88.6
2018-06-02T06:43:26.944Z,88.7
2018-06-02T06:43:47.111Z,87.8
2018-06-02T06:44:07.269Z,87.8
2018-06-02T06:44:27.556Z,86.4
2018-06-02T06:44:47.960Z,86.6
2018-06-02T06:45:08.099Z,85.5
2018-06-02T06:45:28.269Z,85.7
2018-06-02T06:45:48.437Z,85.2
2018-06-02T06:46:08.621Z,84.6
2018-06-02T06:46:28.779Z,84.8
2018-06-02T06:46:48.939Z,85.7
2018-06-02T06:47:09.085Z,85.6
2018-06-02T06:47:29.235Z,85.8
2018-06-02T06:47:49.453Z,86.1
2018-06-02T06:48:09.618Z,86.2
2018-06-02T06:48:29.790Z,86.8
2018-06-02T06:48:49.954Z,86
2018-06-02T06:49:10.113Z,85.8
2018-06-02T06:49:30.275Z,85.7
2018-06-02T06:49:50.423Z,86.8
2018-06-02T06:50:10.590Z,86.6
2018-06-02T06:50:30.752Z,86.4
2018-06-02T06:50:50.928Z,85.9
2018-06-02T06:51:11.106Z,85.3
2018-06-02T06:51:31.283Z,85.7
2018-06-02T06:51:51.434Z,85.7
2018-06-02T06:52:11.583Z,85.6
2018-06-02T06:52:31.730Z,85.9
2018-06-02T06:52:51.890Z,85.4
2018-06-02T06:53:12.028Z,85.9
2018-06-02T06:53:32.197Z,85.5
2018-06-02T06:53:52.361Z,85
2018-06-02T06:54:12.510Z,84.2
2018-06-02T06:54:32.673Z,85.5
2018-06-02T06:54:52.845Z,85.9
2018-06-02T06:55:12.996Z,86.5
2018-06-02T06:55:33.164Z,86.2
2018-06-02T06:55:53.317Z,85.8
2018-06-02T06:56:13.481Z,85.9
2018-06-02T06:56:33.733Z,85.9
2018-06-02T06:56:53.894Z,85.9
2018-06-02T06:57:14.075Z,86.6
2018-06-02T06:57:34.222Z,87
2018-06-02T06:57:54.373Z,86.4
2018-06-02T06:58:14.537Z,86.6
2018-06-02T06:58:34.706Z,86.4
2018-06-02T06:58:54.848Z,86.6
2018-06-02T06:59:14.998Z,85.9
2018-06-02T06:59:35.183Z,85.9
2018-06-02T06:59:55.342Z,85.6
2018-06-02T07:00:15.507Z,85.2
2018-06-02T07:00:35.658Z,85.2
2018-06-02T07:00:55.823Z,85.3
2018-06-02T07:01:15.977Z,85.9
2018-06-02T07:01:36.127Z,86
2018-06-02T07:01:56.287Z,85.9
2018-06-02T07:02:16.448Z,85.9
2018-06-02T07:02:36.585Z,86
2018-06-02T07:02:56.726Z,86
2018-06-02T07:03:16.893Z,85.4
2018-06-02T07:03:37.053Z,85.9
2018-06-02T07:03:57.201Z,87.5
2018-06-02T07:04:17.359Z,86.9
2018-06-02T07:04:37.524Z,87
2018-06-02T07:04:57.701Z,86.3
2018-06-02T07:05:17.859Z,84.5
2018-06-02T07:05:38.021Z,84.3
2018-06-02T07:05:58.188Z,84.1
2018-06-02T07:06:18.358Z,84.5
2018-06-02T07:06:38.516Z,84.5
2018-06-02T07:06:58.713Z,84.5
2018-06-02T07:07:18.889Z,84.5
2018-06-02T07:07:39.041Z,85
2018-06-02T07:07:59.180Z,84.7
2018-06-02T07:08:19.361Z,85.9
2018-06-02T07:08:39.524Z,85.8
2018-06-02T07:08:59.705Z,85.6
2018-06-02T07:09:19.840Z,85.5
2018-06-02T07:09:40.002Z,85.7
2018-06-02T07:10:00.170Z,85.5
2018-06-02T07:10:20.318Z,85
2018-06-02T07:10:40.473Z,85.6
2018-06-02T07:11:00.640Z,85.3
2018-06-02T07:11:20.795Z,85.3
2018-06-02T07:11:40.969Z,86.2
2018-06-02T07:12:01.203Z,86.1
2018-06-02T07:12:21.298Z,85.4
2018-06-02T07:12:41.477Z,83.9
2018-06-02T07:13:01.632Z,84.6
2018-06-02T07:13:21.789Z,86.1
2018-06-02T07:13:41.945Z,84.6
2018-06-02T07:14:02.107Z,84.5
2018-06-02T07:14:22.261Z,83.2
2018-06-02T07:14:42.434Z,83.4
2018-06-02T07:15:02.662Z,83.9
2018-06-02T07:15:22.799Z,83
2018-06-02T07:15:43.026Z,82.8
2018-06-02T07:16:03.142Z,82.3
2018-06-02T07:16:23.305Z,83.4
2018-06-02T07:16:43.456Z,84.3
2018-06-02T07:17:03.626Z,84
2018-06-02T07:17:23.813Z,84
2018-06-02T07:17:44.053Z,83.9
2018-06-02T07:18:04.145Z,84.2
2018-06-02T07:18:24.299Z,83.2
2018-06-02T07:18:44.445Z,82.6
2018-06-02T07:19:04.599Z,82.1
2018-06-02T07:19:24.749Z,82.6
2018-06-02T07:19:44.909Z,82.8
2018-06-02T07:20:05.083Z,82
2018-06-02T07:20:25.241Z,81.6
2018-06-02T07:20:45.435Z,83.2
2018-06-02T07:21:05.601Z,83.7
2018-06-02T07:21:25.764Z,84.4
2018-06-02T07:21:45.985Z,84.1
2018-06-02T07:22:06.088Z,83.2
2018-06-02T07:22:26.255Z,82.7
2018-06-02T07:22:46.411Z,81.1
2018-06-02T07:23:06.568Z,80.8
2018-06-02T07:23:26.719Z,80.8
2018-06-02T07:23:46.860Z,81.9
2018-06-02T07:24:07.030Z,81.9
2018-06-02T07:24:27.189Z,81.6
2018-06-02T07:24:47.374Z,81.3
2018-06-02T07:25:07.513Z,81.6
2018-06-02T07:25:27.695Z,80.2
2018-06-02T07:25:47.864Z,80.9
2018-06-02T07:26:08.025Z,80.4
2018-06-02T07:26:28.198Z,80.9
2018-06-02T07:26:48.457Z,80.7
2018-06-02T07:27:08.689Z,79.7
2018-06-02T07:27:28.878Z,81.5
2018-06-02T07:27:49.191Z,81
2018-06-02T07:28:09.343Z,79.2
2018-06-02T07:28:29.524Z,78.8
2018-06-02T07:28:49.769Z,78.5
2018-06-02T07:29:09.958Z,79.1
2018-06-02T07:29:30.118Z,79.7
2018-06-02T07:29:50.276Z,78.6
2018-06-02T07:30:10.436Z,78.6
2018-06-02T07:30:30.631Z,78.9
2018-06-02T07:30:50.807Z,78.9
2018-06-02T07:31:10.966Z,79
2018-06-02T07:31:31.110Z,79.4
2018-06-02T07:31:51.274Z,80.2
2018-06-02T07:32:11.430Z,79.1
2018-06-02T07:32:31.591Z,79.1
2018-06-02T07:32:51.749Z,78.5
2018-06-02T07:33:11.926Z,78.6
2018-06-02T07:33:32.079Z,78.6
2018-06-02T07:33:52.244Z,78.1
2018-06-02T07:34:12.414Z,78.6
2018-06-02T07:34:32.586Z,79.2
2018-06-02T07:34:52.758Z,79.4
2018-06-02T07:35:12.948Z,78.9
2018-06-02T07:35:33.114Z,77.6
2018-06-02T07:35:53.275Z,77.8
2018-06-02T07:36:13.449Z,77.6
2018-06-02T07:36:33.613Z,77.2
2018-06-02T07:36:53.779Z,79.1
2018-06-02T07:37:14.007Z,79.1
2018-06-02T07:37:34.156Z,78.7
2018-06-02T07:37:54.354Z,78.9
2018-06-02T07:38:14.519Z,78
2018-06-02T07:38:34.668Z,77.6
2018-06-02T07:38:54.840Z,77.4
2018-06-02T07:39:15.023Z,77.7
2018-06-02T07:39:35.205Z,77.9
2018-06-02T07:39:55.425Z,78
2018-06-02T07:40:15.600Z,78.8
2018-06-02T07:40:35.746Z,78.2
2018-06-02T07:40:55.924Z,77.6
2018-06-02T07:41:16.139Z,78.6
2018-06-02T07:41:36.333Z,79.2
2018-06-02T07:41:56.543Z,80
2018-06-02T07:42:16.691Z,79.8
2018-06-02T07:42:36.859Z,79.4
2018-06-02T07:42:57.024Z,79.2
2018-06-02T07:43:17.199Z,78.5
2018-06-02T07:43:37.364Z,78.7
2018-06-02T07:43:57.534Z,80.5
2018-06-02T07:44:17.697Z,79.3
2018-06-02T07:44:37.842Z,78.5
2018-06-02T07:44:58.032Z,78.2
2018-06-02T07:45:18.264Z,77.9
2018-06-02T07:45:38.434Z,76.5
2018-06-02T07:45:58.742Z,76.3
2018-06-02T07:46:18.907Z,76.8
2018-06-02T07:46:39.053Z,76.7
2018-06-02T07:46:59.343Z,77.3
2018-06-02T07:47:19.499Z,76.2
2018-06-02T07:47:39.707Z,75.4
2018-06-02T07:47:59.969Z,76
2018-06-02T07:48:20.165Z,76.8
2018-06-02T07:48:40.361Z,76
2018-06-02T07:49:00.549Z,75.4
2018-06-02T07:49:20.690Z,76.4
2018-06-02T07:49:40.882Z,78.1
2018-06-02T07:50:01.276Z,76.6
2018-06-02T07:50:21.451Z,76.4
2018-06-02T07:50:41.652Z,77.8
2018-06-02T07:51:01.824Z,77.9
2018-06-02T07:51:22.066Z,77.4
2018-06-02T07:51:42.232Z,76.9
2018-06-02T07:52:02.378Z,75.5
2018-06-02T07:52:22.612Z,75.3
2018-06-02T07:52:42.751Z,77.6
2018-06-02T07:53:02.968Z,77.5
2018-06-02T07:53:23.117Z,76.7
2018-06-02T07:53:43.272Z,76.2
2018-06-02T07:54:03.438Z,76.4
2018-06-02T07:54:23.589Z,76.5
2018-06-02T07:54:43.785Z,76
2018-06-02T07:55:03.969Z,76.7
2018-06-02T07:55:24.178Z,76.7
2018-06-02T07:55:44.363Z,76.6
2018-06-02T07:56:04.520Z,76.5
2018-06-02T07:56:24.744Z,76.6
2018-06-02T07:56:44.914Z,77.7
2018-06-02T07:57:05.117Z,77.7
2018-06-02T07:57:25.299Z,77.4
2018-06-02T07:57:46.369Z,77.7
2018-06-02T07:58:06.628Z,76.5
2018-06-02T07:58:26.819Z,75.8
2018-06-02T07:58:46.950Z,76.2
2018-06-02T07:59:07.120Z,77.3
2018-06-02T07:59:27.887Z,76.3
2018-06-02T07:59:48.062Z,76.1
2018-06-02T08:00:08.287Z,73.9
2018-06-02T08:00:28.470Z,73.8
2018-06-02T08:00:48.650Z,73.2
2018-06-02T08:01:08.846Z,74.2
2018-06-02T08:01:29.022Z,74.1
2018-06-02T08:01:49.187Z,75.2
2018-06-02T08:02:09.337Z,75.3
2018-06-02T08:02:29.515Z,75.6
2018-06-02T08:02:49.669Z,75.1
2018-06-02T08:03:09.851Z,74.3
2018-06-02T08:03:30.035Z,74.9
2018-06-02T08:03:50.200Z,75.3
2018-06-02T08:04:10.335Z,76.2
2018-06-02T08:04:30.485Z,76.6
2018-06-02T08:04:50.676Z,76.2
2018-06-02T08:05:10.825Z,76
2018-06-02T08:05:31.104Z,76.1
2018-06-02T08:05:51.288Z,76.1
2018-06-02T08:06:11.579Z,76.3
2018-06-02T08:06:32.378Z,75.7
2018-06-02T08:06:52.549Z,75
2018-06-02T08:07:12.788Z,75.4
2018-06-02T08:07:32.971Z,75.8
2018-06-02T08:07:53.166Z,76.4
2018-06-02T08:08:13.327Z,76.8
2018-06-02T08:08:33.615Z,76.6
2018-06-02T08:08:53.736Z,77.1
2018-06-02T08:09:13.991Z,77.1
2018-06-02T08:09:34.292Z,76.4
2018-06-02T08:09:54.461Z,76.7
2018-06-02T08:10:14.630Z,77
2018-06-02T08:10:34.777Z,76.7
2018-06-02T08:10:54.943Z,76.6
2018-06-02T08:11:15.152Z,77
2018-06-02T08:11:35.471Z,76.7
2018-06-02T08:11:55.650Z,76.7
2018-06-02T08:12:15.874Z,77.2
2018-06-02T08:12:35.989Z,76.8
2018-06-02T08:12:56.156Z,77
2018-06-02T08:13:16.383Z,76.8
2018-06-02T08:13:36.521Z,76.3
2018-06-02T08:13:56.686Z,76.9
2018-06-02T08:14:16.805Z,76.7
2018-06-02T08:14:37.005Z,77.2
2018-06-02T08:14:57.179Z,76.9
2018-06-02T08:15:17.352Z,77.1
2018-06-02T08:15:37.516Z,76.2
2018-06-02T08:15:57.923Z,77
2018-06-02T08:16:18.144Z,77.1
2018-06-02T08:16:38.331Z,76.5
2018-06-02T08:16:58.484Z,75.7
2018-06-02T08:17:18.656Z,76.3
2018-06-02T08:17:38.803Z,76.3
2018-06-02T08:17:59.065Z,75.1
2018-06-02T08:18:19.259Z,74.9
2018-06-02T08:18:39.482Z,75.5
2018-06-02T08:18:59.652Z,76.2
2018-06-02T08:19:19.773Z,76.4
2018-06-02T08:19:39.943Z,75.3
2018-06-02T08:20:00.158Z,75
2018-06-02T08:20:20.332Z,75.1
2018-06-02T08:20:40.491Z,75.1
2018-06-02T08:21:00.690Z,74.9
2018-06-02T08:21:20.885Z,74.9
2018-06-02T08:21:41.056Z,75.3
2018-06-02T08:22:01.218Z,75.5
2018-06-02T08:22:21.380Z,75.9
2018-06-02T08:22:41.571Z,77.4
2018-06-02T08:23:01.762Z,77
2018-06-02T08:23:21.943Z,76.6
2018-06-02T08:23:42.136Z,76.2
2018-06-02T08:24:02.286Z,76.3
2018-06-02T08:24:22.429Z,75
2018-06-02T08:24:42.561Z,75.3
2018-06-02T08:25:02.744Z,74.9
2018-06-02T08:25:22.920Z,75.5
2018-06-02T08:25:43.074Z,77.1
2018-06-02T08:26:03.275Z,76.4
2018-06-02T08:26:23.543Z,76.2
2018-06-02T08:26:43.773Z,75.3
2018-06-02T08:27:03.888Z,74.1
2018-06-02T08:27:24.060Z,74.2
2018-06-02T08:27:44.214Z,74.4
2018-06-02T08:28:04.365Z,74.2
2018-06-02T08:28:24.526Z,75.1
2018-06-02T08:28:44.696Z,75
2018-06-02T08:29:04.859Z,74.9
2018-06-02T08:29:25.108Z,75.2
2018-06-02T08:29:45.345Z,75
2018-06-02T08:30:05.483Z,74.8
2018-06-02T08:30:25.662Z,75.4
2018-06-02T08:30:45.839Z,75.1
2018-06-02T08:31:06.025Z,74.5
2018-06-02T08:31:26.173Z,74.2
2018-06-02T08:31:46.534Z,74.3
2018-06-02T08:32:06.746Z,73.3
2018-06-02T08:32:26.894Z,73.7
2018-06-02T08:32:47.103Z,73.7
2018-06-02T08:33:07.273Z,74.1
2018-06-02T08:33:27.489Z,74.1
2018-06-02T08:33:47.609Z,73.7
2018-06-02T08:34:07.873Z,73.7
2018-06-02T08:34:28.001Z,73.8
2018-06-02T08:34:48.210Z,73.7
2018-06-02T08:35:08.361Z,74
2018-06-02T08:35:28.648Z,73.5
2018-06-02T08:35:49.546Z,73.7
2018-06-02T08:36:09.855Z,74.3
2018-06-02T08:36:30.006Z,74.3
2018-06-02T08:36:50.180Z,74.9
2018-06-02T08:37:10.344Z,76
2018-06-02T08:37:30.493Z,76.8
2018-06-02T08:37:50.653Z,76.8
2018-06-02T08:38:10.812Z,77.6
2018-06-02T08:38:30.992Z,77.7
2018-06-02T08:38:51.210Z,77.1
2018-06-02T08:39:11.340Z,76.4
2018-06-02T08:39:31.513Z,76.9
2018-06-02T08:39:51.687Z,76.9
2018-06-02T08:40:11.871Z,77.6
2018-06-02T08:40:32.070Z,76.4
2018-06-02T08:40:52.229Z,76.9
2018-06-02T08:41:12.398Z,76.9
2018-06-02T08:41:32.591Z,77.1
2018-06-02T08:41:52.707Z,77.2
2018-06-02T08:42:12.850Z,78.1
2018-06-02T08:42:33.025Z,77.8
2018-06-02T08:42:53.194Z,76.7
2018-06-02T08:43:13.342Z,76.7
2018-06-02T08:43:33.521Z,76.8
2018-06-02T08:43:53.694Z,76.1
2018-06-02T08:44:13.859Z,76.4
2018-06-02T08:44:34.054Z,77.7
2018-06-02T08:44:54.215Z,77.5
2018-06-02T08:45:14.387Z,77.9
2018-06-02T08:45:34.542Z,78
2018-06-02T08:45:54.697Z,77.5
2018-06-02T08:46:14.947Z,76.8
2018-06-02T08:46:35.108Z,75.7
2018-06-02T08:46:55.274Z,75.1
2018-06-02T08:47:15.438Z,74.3
2018-06-02T08:47:35.610Z,74.2
2018-06-02T08:47:55.769Z,74.2
2018-06-02T08:48:15.966Z,75.1
2018-06-02T08:48:36.355Z,74.7
2018-06-02T08:48:56.554Z,73.8
2018-06-02T08:49:16.761Z,74.3
2018-06-02T08:49:36.981Z,74.1
2018-06-02T08:49:57.116Z,75
2018-06-02T08:50:17.270Z,74.8
2018-06-02T08:50:37.504Z,74.9
2018-06-02T08:50:57.650Z,74.9
2018-06-02T08:51:17.853Z,74.8
2018-06-02T08:51:38.020Z,74.3
2018-06-02T08:51:58.177Z,74
2018-06-02T08:52:18.344Z,74.1
2018-06-02T08:52:38.500Z,73.9
2018-06-02T08:52:58.665Z,74.9
2018-06-02T08:53:18.831Z,74.2
2018-06-02T08:53:39.007Z,73.6
2018-06-02T08:53:59.178Z,73.6
2018-06-02T08:54:19.395Z,73.7
2018-06-02T08:54:39.566Z,73.5
2018-06-02T08:54:59.722Z,73.1
2018-06-02T08:55:19.939Z,73.3
2018-06-02T08:55:40.104Z,73.1
2018-06-02T08:56:00.265Z,73.7
2018-06-02T08:56:20.416Z,73.9
2018-06-02T08:56:40.580Z,73.7
2018-06-02T08:57:00.742Z,75.7
2018-06-02T08:57:20.882Z,76
2018-06-02T08:57:41.057Z,75.3
2018-06-02T08:58:01.208Z,74.9
2018-06-02T08:58:21.405Z,75
2018-06-02T08:58:41.571Z,75.2
2018-06-02T08:59:01.728Z,75.2
2018-06-02T08:59:21.908Z,77
2018-06-02T08:59:42.079Z,75.9
2018-06-02T09:00:02.309Z,75.2
2018-06-02T09:00:22.554Z,75.4
2018-06-02T09:00:42.801Z,74.9
2018-06-02T09:01:03.071Z,74.1
2018-06-02T09:01:23.260Z,73.9
2018-06-02T09:01:43.426Z,74.3
2018-06-02T09:02:03.610Z,73.6
2018-06-02T09:02:23.774Z,74.3
2018-06-02T09:02:43.932Z,74.4
2018-06-02T09:03:04.083Z,74
2018-06-02T09:03:24.226Z,73.5
2018-06-02T09:03:44.341Z,73.5
2018-06-02T09:04:04.520Z,73.9
2018-06-02T09:04:24.707Z,74
2018-06-02T09:04:44.878Z,74
2018-06-02T09:05:05.122Z,73.3
2018-06-02T09:05:25.321Z,73.3
2018-06-02T09:05:45.501Z,73.3
2018-06-02T09:06:05.656Z,73.1
2018-06-02T09:06:25.820Z,74
2018-06-02T09:06:46.024Z,74.4
2018-06-02T09:07:06.273Z,74
2018-06-02T09:07:26.437Z,72.6
2018-06-02T09:07:46.584Z,73.4
2018-06-02T09:08:06.829Z,73.4
2018-06-02T09:08:27.045Z,72.8
2018-06-02T09:08:47.249Z,72.6
2018-06-02T09:09:07.417Z,72.2
2018-06-02T09:09:27.703Z,72.6
2018-06-02T09:09:47.878Z,72.4